sensor_id;sensor_type;location;lat;lon;timestamp;pressure;altitude;pressure_sealevel;temperature;humidity
5053;BME280;2545;50.892;5.740;2022-07-06T00:01:46;101676.59;;;12.24;100.00
5053;BME280;2545;50.892;5.740;2022-07-06T00:04:12;101677.09;;;12.29;100.00
5053;BME280;2545;50.892;5.740;2022-07-06T00:06:37;101667.78;;;12.26;100.00
5053;BME280;2545;50.892;5.740;2022-07-06T00:09:03;101681.03;;;12.34;100.00
5053;BME280;2545;50.892;5.740;2022-07-06T00:11:29;101673.72;;;12.28;100.00
5053;BME280;2545;50.892;5.740;2022-07-06T00:13:55;101669.81;;;12.23;100.00
5053;BME280;2545;50.892;5.740;2022-07-06T00:16:22;101665.56;;;12.22;100.00
5053;BME280;2545;50.892;5.740;2022-07-06T00:18:47;101668.53;;;12.28;100.00
5053;BME280;2545;50.892;5.740;2022-07-06T00:21:12;101655.59;;;12.28;100.00
5053;BME280;2545;50.892;5.740;2022-07-06T00:23:38;101668.63;;;12.27;100.00
5053;BME280;2545;50.892;5.740;2022-07-06T00:26:03;101667.31;;;12.21;100.00
5053;BME280;2545;50.892;5.740;2022-07-06T00:28:28;101663.13;;;12.08;100.00
5053;BME280;2545;50.892;5.740;2022-07-06T00:30:54;101673.97;;;12.13;100.00
5053;BME280;2545;50.892;5.740;2022-07-06T00:33:20;101663.97;;;12.08;100.00
5053;BME280;2545;50.892;5.740;2022-07-06T00:35:45;101664.97;;;12.06;100.00
5053;BME280;2545;50.892;5.740;2022-07-06T00:38:10;101666.28;;;12.11;100.00
5053;BME280;2545;50.892;5.740;2022-07-06T00:40:36;101662.50;;;12.04;100.00
5053;BME280;2545;50.892;5.740;2022-07-06T00:43:01;101671.72;;;12.08;100.00
5053;BME280;2545;50.892;5.740;2022-07-06T00:45:27;101663.88;;;11.97;100.00
5053;BME280;2545;50.892;5.740;2022-07-06T00:47:52;101670.22;;;11.93;100.00
5053;BME280;2545;50.892;5.740;2022-07-06T00:50:19;101653.78;;;11.81;100.00
5053;BME280;2545;50.892;5.740;2022-07-06T00:52:50;101670.22;;;11.80;100.00
5053;BME280;2545;50.892;5.740;2022-07-06T00:55:19;101655.84;;;11.76;100.00
5053;BME280;2545;50.892;5.740;2022-07-06T00:57:45;101674.91;;;11.75;100.00
5053;BME280;2545;50.892;5.740;2022-07-06T01:00:13;101663.63;;;11.64;100.00
5053;BME280;2545;50.892;5.740;2022-07-06T01:02:40;101660.13;;;11.52;100.00
5053;BME280;2545;50.892;5.740;2022-07-06T01:05:07;101655.88;;;11.51;100.00
5053;BME280;2545;50.892;5.740;2022-07-06T01:07:33;101677.38;;;11.52;100.00
5053;BME280;2545;50.892;5.740;2022-07-06T01:09:59;101672.22;;;11.52;100.00
5053;BME280;2545;50.892;5.740;2022-07-06T01:12:25;101675.50;;;11.54;100.00
5053;BME280;2545;50.892;5.740;2022-07-06T01:14:50;101678.94;;;11.42;100.00
5053;BME280;2545;50.892;5.740;2022-07-06T01:17:17;101675.22;;;11.33;100.00
5053;BME280;2545;50.892;5.740;2022-07-06T01:19:43;101662.31;;;11.20;100.00
5053;BME280;2545;50.892;5.740;2022-07-06T01:22:09;101669.31;;;11.18;100.00
5053;BME280;2545;50.892;5.740;2022-07-06T01:24:35;101671.69;;;11.21;100.00
5053;BME280;2545;50.892;5.740;2022-07-06T01:27:01;101663.88;;;11.23;100.00
5053;BME280;2545;50.892;5.740;2022-07-06T01:29:27;101662.63;;;11.28;100.00
5053;BME280;2545;50.892;5.740;2022-07-06T01:31:52;101662.81;;;11.25;100.00
5053;BME280;2545;50.892;5.740;2022-07-06T01:34:18;101656.63;;;11.28;100.00
5053;BME280;2545;50.892;5.740;2022-07-06T01:36:43;101666.03;;;11.29;100.00
5053;BME280;2545;50.892;5.740;2022-07-06T01:39:09;101667.28;;;11.23;100.00
5053;BME280;2545;50.892;5.740;2022-07-06T01:41:34;101670.78;;;11.10;100.00
5053;BME280;2545;50.892;5.740;2022-07-06T01:44:00;101652.16;;;10.92;100.00
5053;BME280;2545;50.892;5.740;2022-07-06T01:46:25;101657.31;;;10.92;100.00
5053;BME280;2545;50.892;5.740;2022-07-06T01:48:52;101648.84;;;10.90;100.00
5053;BME280;2545;50.892;5.740;2022-07-06T01:51:17;101660.66;;;10.94;100.00
5053;BME280;2545;50.892;5.740;2022-07-06T01:53:43;101657.25;;;10.94;100.00
5053;BME280;2545;50.892;5.740;2022-07-06T01:56:09;101650.72;;;10.88;100.00
5053;BME280;2545;50.892;5.740;2022-07-06T01:58:34;101664.56;;;10.87;100.00
5053;BME280;2545;50.892;5.740;2022-07-06T02:01:00;101671.28;;;10.90;100.00
5053;BME280;2545;50.892;5.740;2022-07-06T02:03:26;101664.88;;;10.83;100.00
5053;BME280;2545;50.892;5.740;2022-07-06T02:05:51;101655.03;;;10.75;100.00
5053;BME280;2545;50.892;5.740;2022-07-06T02:08:17;101660.63;;;10.82;100.00
5053;BME280;2545;50.892;5.740;2022-07-06T02:10:42;101660.19;;;10.75;100.00
5053;BME280;2545;50.892;5.740;2022-07-06T02:13:07;101648.81;;;10.65;100.00
5053;BME280;2545;50.892;5.740;2022-07-06T02:15:33;101652.97;;;10.67;100.00
5053;BME280;2545;50.892;5.740;2022-07-06T02:17:58;101634.16;;;10.65;100.00
5053;BME280;2545;50.892;5.740;2022-07-06T02:20:24;101646.16;;;10.79;100.00
5053;BME280;2545;50.892;5.740;2022-07-06T02:22:50;101654.03;;;10.90;100.00
5053;BME280;2545;50.892;5.740;2022-07-06T02:25:15;101655.69;;;10.91;100.00
5053;BME280;2545;50.892;5.740;2022-07-06T02:27:40;101651.13;;;10.82;100.00
5053;BME280;2545;50.892;5.740;2022-07-06T02:30:06;101645.91;;;10.57;100.00
5053;BME280;2545;50.892;5.740;2022-07-06T02:32:31;101649.31;;;10.57;100.00
5053;BME280;2545;50.892;5.740;2022-07-06T02:34:56;101637.19;;;10.45;100.00
5053;BME280;2545;50.892;5.740;2022-07-06T02:37:22;101640.94;;;10.54;100.00
5053;BME280;2545;50.892;5.740;2022-07-06T02:39:48;101646.94;;;10.54;100.00
5053;BME280;2545;50.892;5.740;2022-07-06T02:42:13;101644.25;;;10.56;100.00
5053;BME280;2545;50.892;5.740;2022-07-06T02:44:39;101654.38;;;10.59;100.00
5053;BME280;2545;50.892;5.740;2022-07-06T02:47:04;101657.81;;;10.59;100.00
5053;BME280;2545;50.892;5.740;2022-07-06T02:49:29;101645.38;;;10.52;100.00
5053;BME280;2545;50.892;5.740;2022-07-06T02:51:55;101646.72;;;10.45;100.00
5053;BME280;2545;50.892;5.740;2022-07-06T02:54:20;101655.69;;;10.52;100.00
5053;BME280;2545;50.892;5.740;2022-07-06T02:56:45;101656.97;;;10.59;100.00
5053;BME280;2545;50.892;5.740;2022-07-06T02:59:16;101651.81;;;10.59;100.00
5053;BME280;2545;50.892;5.740;2022-07-06T03:01:41;101653.03;;;10.53;100.00
5053;BME280;2545;50.892;5.740;2022-07-06T03:04:07;101668.53;;;10.53;100.00
5053;BME280;2545;50.892;5.740;2022-07-06T03:06:32;101641.44;;;10.46;100.00
5053;BME280;2545;50.892;5.740;2022-07-06T03:08:57;101661.59;;;10.54;100.00
5053;BME280;2545;50.892;5.740;2022-07-06T03:11:23;101648.34;;;10.46;100.00
5053;BME280;2545;50.892;5.740;2022-07-06T03:13:48;101649.91;;;10.48;100.00
5053;BME280;2545;50.892;5.740;2022-07-06T03:16:13;101663.44;;;10.52;100.00
5053;BME280;2545;50.892;5.740;2022-07-06T03:18:39;101650.03;;;10.47;100.00
5053;BME280;2545;50.892;5.740;2022-07-06T03:21:04;101663.34;;;10.53;100.00
5053;BME280;2545;50.892;5.740;2022-07-06T03:23:30;101671.91;;;10.54;100.00
5053;BME280;2545;50.892;5.740;2022-07-06T03:25:55;101678.91;;;10.52;100.00
5053;BME280;2545;50.892;5.740;2022-07-06T03:28:20;101674.88;;;10.48;100.00
5053;BME280;2545;50.892;5.740;2022-07-06T03:30:46;101678.22;;;10.50;100.00
5053;BME280;2545;50.892;5.740;2022-07-06T03:33:11;101670.13;;;10.42;100.00
5053;BME280;2545;50.892;5.740;2022-07-06T03:35:36;101676.00;;;10.44;100.00
5053;BME280;2545;50.892;5.740;2022-07-06T03:38:02;101669.69;;;10.35;100.00
5053;BME280;2545;50.892;5.740;2022-07-06T03:40:28;101670.81;;;10.31;100.00
5053;BME280;2545;50.892;5.740;2022-07-06T03:42:53;101669.78;;;10.34;100.00
5053;BME280;2545;50.892;5.740;2022-07-06T03:45:18;101680.53;;;10.40;100.00
5053;BME280;2545;50.892;5.740;2022-07-06T03:47:43;101661.31;;;10.32;100.00
5053;BME280;2545;50.892;5.740;2022-07-06T03:50:09;101673.63;;;10.41;100.00
5053;BME280;2545;50.892;5.740;2022-07-06T03:52:35;101672.53;;;10.45;100.00
5053;BME280;2545;50.892;5.740;2022-07-06T03:55:05;101672.53;;;10.45;100.00
5053;BME280;2545;50.892;5.740;2022-07-06T03:57:30;101677.69;;;10.45;100.00
5053;BME280;2545;50.892;5.740;2022-07-06T03:59:56;101681.63;;;10.50;100.00
5053;BME280;2545;50.892;5.740;2022-07-06T04:02:21;101675.72;;;10.48;100.00
5053;BME280;2545;50.892;5.740;2022-07-06T04:04:47;101693.31;;;10.56;100.00
5053;BME280;2545;50.892;5.740;2022-07-06T04:07:12;101690.72;;;10.56;100.00
5053;BME280;2545;50.892;5.740;2022-07-06T04:09:38;101674.88;;;10.48;100.00
5053;BME280;2545;50.892;5.740;2022-07-06T04:12:03;101691.34;;;10.59;100.00
5053;BME280;2545;50.892;5.740;2022-07-06T04:14:29;101686.47;;;10.55;100.00
5053;BME280;2545;50.892;5.740;2022-07-06T04:16:54;101673.69;;;10.53;100.00
5053;BME280;2545;50.892;5.740;2022-07-06T04:19:19;101694.16;;;10.69;100.00
5053;BME280;2545;50.892;5.740;2022-07-06T04:21:45;101690.31;;;10.62;100.00
5053;BME280;2545;50.892;5.740;2022-07-06T04:24:10;101687.63;;;10.63;100.00
5053;BME280;2545;50.892;5.740;2022-07-06T04:26:35;101683.81;;;10.69;100.00
5053;BME280;2545;50.892;5.740;2022-07-06T04:29:01;101705.16;;;10.85;100.00
5053;BME280;2545;50.892;5.740;2022-07-06T04:31:26;101700.59;;;10.89;100.00
5053;BME280;2545;50.892;5.740;2022-07-06T04:33:51;101698.56;;;10.94;100.00
5053;BME280;2545;50.892;5.740;2022-07-06T04:36:16;101698.88;;;11.02;100.00
5053;BME280;2545;50.892;5.740;2022-07-06T04:38:42;101709.44;;;11.11;100.00
5053;BME280;2545;50.892;5.740;2022-07-06T04:41:07;101693.19;;;11.09;100.00
5053;BME280;2545;50.892;5.740;2022-07-06T04:43:32;101700.94;;;11.22;100.00
5053;BME280;2545;50.892;5.740;2022-07-06T04:45:58;101688.34;;;11.17;100.00
5053;BME280;2545;50.892;5.740;2022-07-06T04:48:23;101688.88;;;11.22;100.00
5053;BME280;2545;50.892;5.740;2022-07-06T04:50:48;101700.44;;;11.29;100.00
5053;BME280;2545;50.892;5.740;2022-07-06T04:53:13;101702.72;;;11.34;100.00
5053;BME280;2545;50.892;5.740;2022-07-06T04:55:39;101704.25;;;11.37;100.00
5053;BME280;2545;50.892;5.740;2022-07-06T04:58:04;101702.09;;;11.43;100.00
5053;BME280;2545;50.892;5.740;2022-07-06T05:00:30;101706.03;;;11.49;100.00
5053;BME280;2545;50.892;5.740;2022-07-06T05:02:56;101710.06;;;11.53;100.00
5053;BME280;2545;50.892;5.740;2022-07-06T05:05:21;101701.47;;;11.52;100.00
5053;BME280;2545;50.892;5.740;2022-07-06T05:07:47;101704.56;;;11.57;100.00
5053;BME280;2545;50.892;5.740;2022-07-06T05:10:12;101699.44;;;11.70;100.00
5053;BME280;2545;50.892;5.740;2022-07-06T05:12:37;101701.59;;;11.76;100.00
5053;BME280;2545;50.892;5.740;2022-07-06T05:15:03;101706.09;;;11.85;100.00
5053;BME280;2545;50.892;5.740;2022-07-06T05:17:29;101699.09;;;11.87;100.00
5053;BME280;2545;50.892;5.740;2022-07-06T05:19:54;101689.66;;;11.86;100.00
5053;BME280;2545;50.892;5.740;2022-07-06T05:22:20;101696.22;;;12.03;100.00
5053;BME280;2545;50.892;5.740;2022-07-06T05:24:45;101700.66;;;12.13;100.00
5053;BME280;2545;50.892;5.740;2022-07-06T05:27:10;101696.34;;;12.14;100.00
5053;BME280;2545;50.892;5.740;2022-07-06T05:29:36;101683.31;;;12.26;100.00
5053;BME280;2545;50.892;5.740;2022-07-06T05:32:01;101704.25;;;12.47;100.00
5053;BME280;2545;50.892;5.740;2022-07-06T05:34:27;101698.31;;;12.58;100.00
5053;BME280;2545;50.892;5.740;2022-07-06T05:36:52;101705.81;;;12.84;100.00
5053;BME280;2545;50.892;5.740;2022-07-06T05:39:17;101712.09;;;12.93;100.00
5053;BME280;2545;50.892;5.740;2022-07-06T05:41:45;101712.47;;;12.99;100.00
5053;BME280;2545;50.892;5.740;2022-07-06T05:44:11;101708.28;;;13.10;100.00
5053;BME280;2545;50.892;5.740;2022-07-06T05:46:36;101710.53;;;13.14;100.00
5053;BME280;2545;50.892;5.740;2022-07-06T05:49:01;101721.13;;;13.22;100.00
5053;BME280;2545;50.892;5.740;2022-07-06T05:51:45;101722.34;;;13.40;100.00
5053;BME280;2545;50.892;5.740;2022-07-06T05:54:10;101722.84;;;13.57;100.00
5053;BME280;2545;50.892;5.740;2022-07-06T05:56:36;101715.06;;;13.57;100.00
5053;BME280;2545;50.892;5.740;2022-07-06T05:59:01;101726.97;;;13.70;100.00
5053;BME280;2545;50.892;5.740;2022-07-06T06:01:26;101722.38;;;13.85;100.00
5053;BME280;2545;50.892;5.740;2022-07-06T06:03:51;101722.97;;;13.66;100.00
5053;BME280;2545;50.892;5.740;2022-07-06T06:06:17;101730.63;;;13.68;100.00
5053;BME280;2545;50.892;5.740;2022-07-06T06:08:42;101716.34;;;13.84;100.00
5053;BME280;2545;50.892;5.740;2022-07-06T06:11:07;101735.88;;;14.22;100.00
5053;BME280;2545;50.892;5.740;2022-07-06T06:13:33;101722.81;;;14.23;100.00
5053;BME280;2545;50.892;5.740;2022-07-06T06:15:58;101716.91;;;14.32;100.00
5053;BME280;2545;50.892;5.740;2022-07-06T06:18:24;101713.84;;;14.27;100.00
5053;BME280;2545;50.892;5.740;2022-07-06T06:20:49;101721.28;;;14.21;100.00
5053;BME280;2545;50.892;5.740;2022-07-06T06:23:14;101719.28;;;14.24;100.00
5053;BME280;2545;50.892;5.740;2022-07-06T06:25:39;101731.28;;;14.36;100.00
5053;BME280;2545;50.892;5.740;2022-07-06T06:28:07;101726.47;;;14.63;100.00
5053;BME280;2545;50.892;5.740;2022-07-06T06:30:35;101723.59;;;14.98;100.00
5053;BME280;2545;50.892;5.740;2022-07-06T06:33:15;101729.06;;;15.16;100.00
5053;BME280;2545;50.892;5.740;2022-07-06T06:35:43;101726.50;;;15.46;100.00
5053;BME280;2545;50.892;5.740;2022-07-06T06:38:08;101734.44;;;15.65;100.00
5053;BME280;2545;50.892;5.740;2022-07-06T06:40:34;101720.00;;;15.92;100.00
5053;BME280;2545;50.892;5.740;2022-07-06T06:42:59;101720.38;;;15.77;100.00
5053;BME280;2545;50.892;5.740;2022-07-06T06:45:25;101712.13;;;16.12;100.00
5053;BME280;2545;50.892;5.740;2022-07-06T06:47:50;101740.13;;;16.39;98.18
5053;BME280;2545;50.892;5.740;2022-07-06T06:50:15;101723.88;;;16.66;95.87
5053;BME280;2545;50.892;5.740;2022-07-06T06:52:40;101729.63;;;16.69;92.75
5053;BME280;2545;50.892;5.740;2022-07-06T06:55:06;101731.66;;;16.85;93.27
5053;BME280;2545;50.892;5.740;2022-07-06T06:57:32;101733.41;;;16.37;93.97
5053;BME280;2545;50.892;5.740;2022-07-06T06:59:57;101731.25;;;16.70;89.69
5053;BME280;2545;50.892;5.740;2022-07-06T07:02:22;101729.34;;;16.72;90.92
5053;BME280;2545;50.892;5.740;2022-07-06T07:04:48;101738.09;;;16.43;94.24
5053;BME280;2545;50.892;5.740;2022-07-06T07:07:13;101731.81;;;16.55;89.16
5053;BME280;2545;50.892;5.740;2022-07-06T07:09:38;101738.13;;;16.91;86.78
5053;BME280;2545;50.892;5.740;2022-07-06T07:12:04;101738.13;;;17.00;86.18
5053;BME280;2545;50.892;5.740;2022-07-06T07:14:30;101738.13;;;17.10;82.77
5053;BME280;2545;50.892;5.740;2022-07-06T07:16:55;101743.88;;;17.04;74.90
5053;BME280;2545;50.892;5.740;2022-07-06T07:19:20;101728.47;;;17.20;69.20
5053;BME280;2545;50.892;5.740;2022-07-06T07:21:45;101742.50;;;17.19;69.64
5053;BME280;2545;50.892;5.740;2022-07-06T07:24:11;101751.09;;;17.38;65.80
5053;BME280;2545;50.892;5.740;2022-07-06T07:26:36;101734.72;;;17.46;63.17
5053;BME280;2545;50.892;5.740;2022-07-06T07:29:02;101753.25;;;17.53;60.52
5053;BME280;2545;50.892;5.740;2022-07-06T07:31:27;101747.03;;;17.73;62.02
5053;BME280;2545;50.892;5.740;2022-07-06T07:33:53;101751.13;;;17.75;62.12
5053;BME280;2545;50.892;5.740;2022-07-06T07:36:20;101752.88;;;17.84;61.28
5053;BME280;2545;50.892;5.740;2022-07-06T07:38:45;101746.75;;;18.03;59.22
5053;BME280;2545;50.892;5.740;2022-07-06T07:41:10;101742.47;;;18.02;54.09
5053;BME280;2545;50.892;5.740;2022-07-06T07:43:38;101733.22;;;18.35;52.20
5053;BME280;2545;50.892;5.740;2022-07-06T07:46:04;101733.16;;;18.44;53.27
5053;BME280;2545;50.892;5.740;2022-07-06T07:48:29;101730.31;;;18.38;53.00
5053;BME280;2545;50.892;5.740;2022-07-06T07:50:54;101746.34;;;18.43;53.19
5053;BME280;2545;50.892;5.740;2022-07-06T07:53:20;101745.91;;;18.30;52.95
5053;BME280;2545;50.892;5.740;2022-07-06T07:55:45;101738.66;;;18.24;52.57
5053;BME280;2545;50.892;5.740;2022-07-06T07:58:10;101721.84;;;18.09;54.59
5053;BME280;2545;50.892;5.740;2022-07-06T08:00:36;101723.78;;;18.07;54.99
5053;BME280;2545;50.892;5.740;2022-07-06T08:03:01;101730.34;;;18.11;53.49
5053;BME280;2545;50.892;5.740;2022-07-06T08:05:26;101722.28;;;18.22;53.01
5053;BME280;2545;50.892;5.740;2022-07-06T08:07:52;101726.03;;;18.19;53.56
5053;BME280;2545;50.892;5.740;2022-07-06T08:10:17;101728.22;;;18.24;52.75
5053;BME280;2545;50.892;5.740;2022-07-06T08:12:42;101726.63;;;18.31;52.39
5053;BME280;2545;50.892;5.740;2022-07-06T08:15:08;101726.25;;;18.26;53.13
5053;BME280;2545;50.892;5.740;2022-07-06T08:17:33;101734.84;;;18.18;53.34
5053;BME280;2545;50.892;5.740;2022-07-06T08:19:59;101735.75;;;18.27;54.08
5053;BME280;2545;50.892;5.740;2022-07-06T08:22:24;101720.81;;;18.37;53.60
5053;BME280;2545;50.892;5.740;2022-07-06T08:24:49;101722.28;;;18.49;53.68
5053;BME280;2545;50.892;5.740;2022-07-06T08:27:15;101723.81;;;18.77;52.75
5053;BME280;2545;50.892;5.740;2022-07-06T08:29:40;101727.59;;;19.00;52.07
5053;BME280;2545;50.892;5.740;2022-07-06T08:32:06;101714.47;;;19.18;51.70
5053;BME280;2545;50.892;5.740;2022-07-06T08:34:31;101729.53;;;19.16;49.80
5053;BME280;2545;50.892;5.740;2022-07-06T08:36:56;101725.78;;;19.44;49.41
5053;BME280;2545;50.892;5.740;2022-07-06T08:39:22;101735.03;;;19.56;48.47
5053;BME280;2545;50.892;5.740;2022-07-06T08:41:48;101725.41;;;19.65;47.95
5053;BME280;2545;50.892;5.740;2022-07-06T08:44:15;101730.13;;;19.61;47.22
5053;BME280;2545;50.892;5.740;2022-07-06T08:46:41;101720.75;;;19.51;47.93
5053;BME280;2545;50.892;5.740;2022-07-06T08:49:07;101728.28;;;19.46;47.51
5053;BME280;2545;50.892;5.740;2022-07-06T08:51:35;101735.66;;;19.33;47.96
5053;BME280;2545;50.892;5.740;2022-07-06T08:54:02;101728.00;;;18.88;48.00
5053;BME280;2545;50.892;5.740;2022-07-06T08:56:29;101720.84;;;19.16;48.10
5053;BME280;2545;50.892;5.740;2022-07-06T08:58:55;101736.09;;;19.72;48.19
5053;BME280;2545;50.892;5.740;2022-07-06T09:01:21;101716.38;;;20.01;47.86
5053;BME280;2545;50.892;5.740;2022-07-06T09:03:49;101724.06;;;20.69;45.86
5053;BME280;2545;50.892;5.740;2022-07-06T09:06:16;101722.72;;;21.05;44.55
5053;BME280;2545;50.892;5.740;2022-07-06T09:08:45;101723.06;;;21.10;44.49
5053;BME280;2545;50.892;5.740;2022-07-06T09:11:11;101725.84;;;21.25;45.16
5053;BME280;2545;50.892;5.740;2022-07-06T09:13:37;101720.44;;;20.94;44.25
5053;BME280;2545;50.892;5.740;2022-07-06T09:16:13;101718.81;;;21.01;43.95
5053;BME280;2545;50.892;5.740;2022-07-06T09:18:39;101725.03;;;21.16;43.71
5053;BME280;2545;50.892;5.740;2022-07-06T09:21:06;101717.19;;;21.08;43.73
5053;BME280;2545;50.892;5.740;2022-07-06T09:23:32;101715.00;;;21.28;42.53
5053;BME280;2545;50.892;5.740;2022-07-06T09:25:57;101711.81;;;21.57;42.38
5053;BME280;2545;50.892;5.740;2022-07-06T09:28:23;101720.34;;;21.59;43.09
5053;BME280;2545;50.892;5.740;2022-07-06T09:30:48;101716.84;;;21.66;42.87
5053;BME280;2545;50.892;5.740;2022-07-06T09:33:17;101721.22;;;21.82;42.44
5053;BME280;2545;50.892;5.740;2022-07-06T09:35:43;101717.63;;;21.91;42.19
5053;BME280;2545;50.892;5.740;2022-07-06T09:38:14;101722.44;;;22.33;43.48
5053;BME280;2545;50.892;5.740;2022-07-06T09:40:40;101725.00;;;22.72;41.70
5053;BME280;2545;50.892;5.740;2022-07-06T09:43:21;101731.25;;;23.08;39.86
5053;BME280;2545;50.892;5.740;2022-07-06T09:45:52;101716.09;;;23.25;39.07
5053;BME280;2545;50.892;5.740;2022-07-06T09:48:26;101728.81;;;23.36;39.27
5053;BME280;2545;50.892;5.740;2022-07-06T09:50:57;101733.69;;;22.27;40.70
5053;BME280;2545;50.892;5.740;2022-07-06T09:53:25;101723.56;;;21.30;42.05
5053;BME280;2545;50.892;5.740;2022-07-06T09:55:52;101734.84;;;21.39;42.16
5053;BME280;2545;50.892;5.740;2022-07-06T09:58:19;101722.31;;;21.57;41.98
5053;BME280;2545;50.892;5.740;2022-07-06T10:00:46;101732.63;;;21.66;41.21
5053;BME280;2545;50.892;5.740;2022-07-06T10:03:12;101727.66;;;21.88;41.34
5053;BME280;2545;50.892;5.740;2022-07-06T10:05:40;101723.09;;;22.35;40.08
5053;BME280;2545;50.892;5.740;2022-07-06T10:08:07;101722.66;;;22.91;38.71
5053;BME280;2545;50.892;5.740;2022-07-06T10:10:37;101728.63;;;23.23;38.40
5053;BME280;2545;50.892;5.740;2022-07-06T10:13:04;101723.38;;;23.23;39.09
5053;BME280;2545;50.892;5.740;2022-07-06T10:15:34;101714.00;;;22.68;38.62
5053;BME280;2545;50.892;5.740;2022-07-06T10:18:02;101726.19;;;23.21;38.10
5053;BME280;2545;50.892;5.740;2022-07-06T10:20:31;101716.03;;;22.35;40.27
5053;BME280;2545;50.892;5.740;2022-07-06T10:23:00;101720.97;;;22.30;40.50
5053;BME280;2545;50.892;5.740;2022-07-06T10:25:26;101725.56;;;22.82;39.63
5053;BME280;2545;50.892;5.740;2022-07-06T10:27:52;101717.75;;;22.88;38.81
5053;BME280;2545;50.892;5.740;2022-07-06T10:30:18;101723.53;;;23.36;38.65
5053;BME280;2545;50.892;5.740;2022-07-06T10:32:46;101718.50;;;24.14;36.51
5053;BME280;2545;50.892;5.740;2022-07-06T10:35:13;101715.22;;;24.12;37.00
5053;BME280;2545;50.892;5.740;2022-07-06T10:37:39;101708.69;;;23.93;38.45
5053;BME280;2545;50.892;5.740;2022-07-06T10:40:05;101718.50;;;23.99;37.54
5053;BME280;2545;50.892;5.740;2022-07-06T10:42:55;101725.16;;;23.95;37.04
5053;BME280;2545;50.892;5.740;2022-07-06T10:50:39;101715.50;;;23.67;38.11
5053;BME280;2545;50.892;5.740;2022-07-06T10:53:12;101719.38;;;23.27;38.59
5053;BME280;2545;50.892;5.740;2022-07-06T10:55:39;101711.22;;;23.51;38.44
5053;BME280;2545;50.892;5.740;2022-07-06T10:58:05;101730.03;;;23.63;38.60
5053;BME280;2545;50.892;5.740;2022-07-06T11:00:54;101719.94;;;23.66;38.22
5053;BME280;2545;50.892;5.740;2022-07-06T11:03:38;101715.34;;;23.89;38.54
5053;BME280;2545;50.892;5.740;2022-07-06T11:06:19;101724.31;;;23.59;38.15
5053;BME280;2545;50.892;5.740;2022-07-06T11:09:02;101717.63;;;23.92;37.67
5053;BME280;2545;50.892;5.740;2022-07-06T11:14:00;101735.13;;;24.72;36.80
5053;BME280;2545;50.892;5.740;2022-07-06T11:16:31;101730.09;;;23.84;37.94
5053;BME280;2545;50.892;5.740;2022-07-06T11:19:06;101722.31;;;23.76;36.65
5053;BME280;2545;50.892;5.740;2022-07-06T11:21:39;101725.69;;;23.55;37.27
5053;BME280;2545;50.892;5.740;2022-07-06T11:24:10;101702.31;;;23.23;36.78
5053;BME280;2545;50.892;5.740;2022-07-06T11:26:36;101706.22;;;23.56;37.09
5053;BME280;2545;50.892;5.740;2022-07-06T11:29:07;101708.47;;;23.59;37.95
5053;BME280;2545;50.892;5.740;2022-07-06T11:31:34;101712.47;;;23.84;36.79
5053;BME280;2545;50.892;5.740;2022-07-06T11:34:00;101704.56;;;23.84;37.51
5053;BME280;2545;50.892;5.740;2022-07-06T11:36:26;101710.94;;;23.75;37.48
5053;BME280;2545;50.892;5.740;2022-07-06T11:38:51;101707.03;;;23.57;37.63
5053;BME280;2545;50.892;5.740;2022-07-06T11:41:17;101715.13;;;23.70;37.48
5053;BME280;2545;50.892;5.740;2022-07-06T11:43:44;101711.72;;;23.90;37.41
5053;BME280;2545;50.892;5.740;2022-07-06T11:48:56;101699.41;;;23.97;37.83
5053;BME280;2545;50.892;5.740;2022-07-06T11:51:24;101711.16;;;23.95;38.12
5053;BME280;2545;50.892;5.740;2022-07-06T11:53:53;101704.63;;;24.27;37.19
5053;BME280;2545;50.892;5.740;2022-07-06T11:56:19;101701.19;;;24.47;36.52
5053;BME280;2545;50.892;5.740;2022-07-06T11:58:48;101697.91;;;24.45;36.83
5053;BME280;2545;50.892;5.740;2022-07-06T12:01:14;101714.19;;;25.26;35.87
5053;BME280;2545;50.892;5.740;2022-07-06T12:03:41;101705.03;;;25.22;35.21
5053;BME280;2545;50.892;5.740;2022-07-06T12:06:13;101702.72;;;25.12;35.28
5053;BME280;2545;50.892;5.740;2022-07-06T12:08:43;101702.19;;;25.57;34.64
5053;BME280;2545;50.892;5.740;2022-07-06T12:11:09;101698.41;;;25.80;33.65
5053;BME280;2545;50.892;5.740;2022-07-06T12:13:38;101711.81;;;25.78;34.29
5053;BME280;2545;50.892;5.740;2022-07-06T12:16:10;101710.44;;;25.82;34.51
5053;BME280;2545;50.892;5.740;2022-07-06T12:18:37;101694.00;;;26.13;33.88
5053;BME280;2545;50.892;5.740;2022-07-06T12:21:03;101692.44;;;26.25;33.85
5053;BME280;2545;50.892;5.740;2022-07-06T12:23:38;101685.34;;;26.45;34.00
5053;BME280;2545;50.892;5.740;2022-07-06T12:26:04;101686.78;;;26.94;33.40
5053;BME280;2545;50.892;5.740;2022-07-06T12:28:29;101689.13;;;27.34;32.41
5053;BME280;2545;50.892;5.740;2022-07-06T12:30:54;101670.41;;;27.23;32.58
5053;BME280;2545;50.892;5.740;2022-07-06T12:33:19;101669.06;;;26.55;34.12
5053;BME280;2545;50.892;5.740;2022-07-06T12:35:45;101665.19;;;26.90;33.41
5053;BME280;2545;50.892;5.740;2022-07-06T12:38:11;101664.69;;;27.19;32.80
5053;BME280;2545;50.892;5.740;2022-07-06T12:40:36;101660.06;;;27.97;32.80
5053;BME280;2545;50.892;5.740;2022-07-06T12:43:03;101662.75;;;28.53;30.91
5053;BME280;2545;50.892;5.740;2022-07-06T12:45:29;101652.94;;;28.54;31.67
5053;BME280;2545;50.892;5.740;2022-07-06T12:48:05;101661.91;;;27.59;32.30
5053;BME280;2545;50.892;5.740;2022-07-06T12:50:38;101656.63;;;26.88;32.82
5053;BME280;2545;50.892;5.740;2022-07-06T12:53:05;101658.50;;;27.38;32.87
5053;BME280;2545;50.892;5.740;2022-07-06T12:55:31;101647.81;;;24.52;35.60
5053;BME280;2545;50.892;5.740;2022-07-06T12:57:57;101642.56;;;26.88;33.62
5053;BME280;2545;50.892;5.740;2022-07-06T13:00:24;101645.56;;;28.06;31.44
5053;BME280;2545;50.892;5.740;2022-07-06T13:02:52;101657.25;;;29.52;29.23
5053;BME280;2545;50.892;5.740;2022-07-06T13:05:25;101659.31;;;30.09;28.91
5053;BME280;2545;50.892;5.740;2022-07-06T13:07:57;101669.38;;;30.07;28.81
5053;BME280;2545;50.892;5.740;2022-07-06T13:10:23;101655.56;;;29.69;29.20
5053;BME280;2545;50.892;5.740;2022-07-06T13:12:50;101654.75;;;29.39;30.47